createdAt,value
2019-03-30T00:01:53.461Z,1.87
2019-03-30T00:04:19.622Z,1.84
2019-03-30T00:06:45.794Z,1.83
2019-03-30T00:09:12.033Z,1.80
2019-03-30T00:11:38.188Z,1.78
2019-03-30T00:14:04.310Z,1.75
2019-03-30T00:16:30.351Z,1.73
2019-03-30T00:18:56.419Z,1.70
2019-03-30T00:21:22.540Z,1.68
2019-03-30T00:23:48.681Z,1.63
2019-03-30T00:26:14.798Z,1.54
2019-03-30T00:28:41.170Z,1.51
2019-03-30T00:31:07.305Z,1.52
2019-03-30T00:33:37.228Z,1.51
2019-03-30T00:36:03.381Z,1.51
2019-03-30T00:38:29.632Z,1.52
2019-03-30T00:40:55.976Z,1.52
2019-03-30T00:43:22.117Z,1.48
2019-03-30T00:45:48.257Z,1.50
2019-03-30T00:48:14.278Z,1.45
2019-03-30T00:50:40.412Z,1.38
2019-03-30T00:53:06.530Z,1.35
2019-03-30T00:55:32.580Z,1.35
2019-03-30T00:57:58.606Z,1.33
2019-03-30T01:00:24.744Z,1.33
2019-03-30T01:02:50.765Z,1.33
2019-03-30T01:05:16.908Z,1.35
2019-03-30T01:07:43.035Z,1.34
2019-03-30T01:10:09.265Z,1.31
2019-03-30T01:12:35.381Z,1.34
2019-03-30T01:15:02.109Z,1.33
2019-03-30T01:17:28.227Z,1.33
2019-03-30T01:20:02.738Z,1.31
2019-03-30T01:22:22.267Z,1.30
2019-03-30T01:24:48.317Z,1.25
2019-03-30T01:27:14.438Z,1.23
2019-03-30T01:29:40.574Z,1.22
2019-03-30T01:32:06.601Z,1.20
2019-03-30T01:34:32.737Z,1.23
2019-03-30T01:36:58.861Z,1.23
2019-03-30T01:39:24.883Z,1.24
2019-03-30T01:41:50.896Z,1.24
2019-03-30T01:44:17.053Z,1.24
2019-03-30T01:46:43.086Z,1.18
2019-03-30T01:49:09.098Z,1.14
2019-03-30T01:51:35.323Z,1.10
2019-03-30T01:54:01.338Z,1.07
2019-03-30T01:56:27.474Z,1.02
2019-03-30T01:58:53.502Z,0.97
2019-03-30T02:01:19.526Z,0.94
2019-03-30T02:03:45.588Z,0.93
2019-03-30T02:06:11.709Z,0.90
2019-03-30T02:08:37.774Z,0.87
2019-03-30T02:11:03.991Z,0.84
2019-03-30T02:13:30.182Z,0.80
2019-03-30T02:15:56.412Z,0.77
2019-03-30T02:18:27.561Z,0.79
2019-03-30T02:20:53.689Z,0.79
2019-03-30T02:23:19.808Z,0.80
2019-03-30T02:25:45.963Z,0.80
2019-03-30T02:28:12.178Z,0.80
2019-03-30T02:30:38.354Z,0.81
2019-03-30T02:33:05.216Z,0.79
2019-03-30T02:35:31.360Z,0.76
2019-03-30T02:37:57.689Z,0.75
2019-03-30T02:40:23.715Z,0.73
2019-03-30T02:42:49.936Z,0.68
2019-03-30T02:45:16.141Z,0.64
2019-03-30T02:47:42.264Z,0.62
2019-03-30T02:50:08.476Z,0.60
2019-03-30T02:52:34.609Z,0.58
2019-03-30T02:55:00.756Z,0.52
2019-03-30T02:57:26.882Z,0.51
2019-03-30T02:59:53.002Z,0.48
2019-03-30T03:02:19.163Z,0.47
2019-03-30T03:04:45.183Z,0.43
2019-03-30T03:07:11.294Z,0.41
2019-03-30T03:09:37.340Z,0.41
2019-03-30T03:12:03.450Z,0.36
2019-03-30T03:14:29.609Z,0.33
2019-03-30T03:16:55.719Z,0.30
2019-03-30T03:19:21.878Z,0.29
2019-03-30T03:21:48.007Z,0.29
2019-03-30T03:24:14.126Z,0.27
2019-03-30T03:26:40.168Z,0.27
2019-03-30T03:29:06.335Z,0.24
2019-03-30T03:31:35.133Z,0.20
2019-03-30T03:34:01.250Z,0.18
2019-03-30T03:36:27.357Z,0.16
2019-03-30T03:38:54.907Z,0.14
2019-03-30T03:41:21.025Z,0.09
2019-03-30T03:43:47.252Z,0.07
2019-03-30T03:46:13.388Z,0.06
2019-03-30T03:48:39.432Z,0.06
2019-03-30T03:51:05.765Z,0.01
2019-03-30T03:53:34.196Z,-0.01
2019-03-30T03:56:00.511Z,-0.01
2019-03-30T03:58:30.240Z,-0.01
2019-03-30T04:00:56.868Z,-0.03
2019-03-30T04:03:24.893Z,-0.03
2019-03-30T04:05:54.617Z,-0.03
2019-03-30T04:08:24.141Z,-0.08
2019-03-30T04:10:51.085Z,-0.08
2019-03-30T04:13:17.213Z,-0.06
2019-03-30T04:15:43.467Z,-0.05
2019-03-30T04:18:09.667Z,-0.07
2019-03-30T04:20:35.827Z,-0.08
2019-03-30T04:23:01.853Z,-0.10
2019-03-30T04:25:27.938Z,-0.09
2019-03-30T04:27:54.036Z,-0.11
2019-03-30T04:30:20.192Z,-0.11
2019-03-30T04:32:46.311Z,-0.13
2019-03-30T04:35:12.333Z,-0.16
2019-03-30T04:37:38.478Z,-0.18
2019-03-30T04:40:04.895Z,-0.17
2019-03-30T04:42:30.931Z,-0.14
2019-03-30T04:44:57.065Z,-0.10
2019-03-30T04:47:23.192Z,-0.08
2019-03-30T04:49:49.446Z,-0.09
2019-03-30T04:52:15.475Z,-0.08
2019-03-30T04:54:41.608Z,-0.05
2019-03-30T04:57:07.747Z,-0.04
2019-03-30T04:59:33.889Z,-0.04
2019-03-30T05:02:00.011Z,-0.01
2019-03-30T05:04:26.130Z,0.05
2019-03-30T05:06:52.146Z,0.11
2019-03-30T05:09:18.287Z,0.17
2019-03-30T05:11:44.321Z,0.20
2019-03-30T05:14:10.440Z,0.23
2019-03-30T05:16:36.466Z,0.20
2019-03-30T05:19:02.589Z,0.17
2019-03-30T05:21:28.615Z,0.20
2019-03-30T05:23:54.734Z,0.23
2019-03-30T05:26:20.865Z,0.29
2019-03-30T05:28:46.989Z,0.30
2019-03-30T05:31:13.150Z,0.34
2019-03-30T05:33:39.295Z,0.34
2019-03-30T05:36:05.407Z,0.36
2019-03-30T05:38:31.543Z,0.37
2019-03-30T05:40:57.693Z,0.35
2019-03-30T05:43:23.737Z,0.41
2019-03-30T05:45:49.881Z,0.41
2019-03-30T05:48:15.888Z,0.44
2019-03-30T05:50:42.029Z,0.44
2019-03-30T05:53:08.055Z,0.44
2019-03-30T05:55:34.187Z,0.49
2019-03-30T05:58:00.301Z,0.47
2019-03-30T06:00:26.445Z,0.42
2019-03-30T06:02:54.779Z,0.39
2019-03-30T06:05:20.542Z,0.44
2019-03-30T06:07:46.657Z,0.46
2019-03-30T06:10:12.788Z,0.48
2019-03-30T06:12:38.825Z,0.48
2019-03-30T06:15:06.355Z,0.52
2019-03-30T06:17:32.472Z,0.61
2019-03-30T06:20:00.970Z,0.66
2019-03-30T06:22:39.777Z,0.70
2019-03-30T06:24:55.130Z,0.75
2019-03-30T06:27:21.065Z,0.71
2019-03-30T06:30:19.420Z,0.68
2019-03-30T06:32:45.551Z,0.67
2019-03-30T06:35:11.671Z,0.71
2019-03-30T06:37:37.788Z,0.70
2019-03-30T06:40:04.622Z,0.74
2019-03-30T06:42:30.633Z,0.80
2019-03-30T06:44:56.590Z,0.90
2019-03-30T06:47:22.731Z,1.02
2019-03-30T06:49:48.885Z,1.11
2019-03-30T06:52:15.011Z,1.20
2019-03-30T06:54:41.144Z,1.28
2019-03-30T06:57:07.287Z,1.35
2019-03-30T06:59:33.444Z,1.45
2019-03-30T07:01:59.587Z,1.54
2019-03-30T07:04:25.741Z,1.61
2019-03-30T07:06:51.960Z,1.70
2019-03-30T07:09:21.319Z,1.74
2019-03-30T07:11:48.571Z,1.83
2019-03-30T07:14:14.845Z,1.90
2019-03-30T07:17:05.228Z,1.98
2019-03-30T07:19:34.994Z,2.07
2019-03-30T07:22:01.152Z,2.16
2019-03-30T07:24:27.470Z,2.28
2019-03-30T07:26:53.713Z,2.40
2019-03-30T07:29:20.000Z,2.53
2019-03-30T07:31:49.099Z,2.66
2019-03-30T07:34:15.372Z,2.74
2019-03-30T07:36:43.592Z,2.87
2019-03-30T07:39:09.768Z,3.00
2019-03-30T07:41:35.898Z,3.09
2019-03-30T07:44:04.093Z,3.22
2019-03-30T07:46:30.238Z,3.34
2019-03-30T07:48:56.265Z,3.55
2019-03-30T07:51:22.502Z,3.72
2019-03-30T07:53:48.869Z,3.93
2019-03-30T07:56:15.135Z,4.10
2019-03-30T07:58:41.323Z,4.27
2019-03-30T08:01:07.597Z,4.50
2019-03-30T08:03:33.814Z,4.65
2019-03-30T08:05:59.951Z,5.05
2019-03-30T08:08:26.193Z,5.24
2019-03-30T08:10:52.414Z,5.42
2019-03-30T08:13:18.542Z,5.60
2019-03-30T08:15:44.590Z,5.75
2019-03-30T08:18:10.714Z,5.91
2019-03-30T08:20:36.987Z,6.05
2019-03-30T08:23:03.107Z,6.16
2019-03-30T08:25:29.394Z,6.24
2019-03-30T08:27:55.518Z,6.41
2019-03-30T08:30:21.670Z,6.63
2019-03-30T08:32:47.860Z,6.81
2019-03-30T08:35:14.104Z,7.02
2019-03-30T08:37:40.226Z,7.25
2019-03-30T08:40:06.550Z,7.48
2019-03-30T08:42:32.791Z,7.53
2019-03-30T08:44:59.040Z,7.53
2019-03-30T08:47:25.322Z,7.59
2019-03-30T08:49:51.613Z,7.81
2019-03-30T08:52:20.567Z,8.06
2019-03-30T08:54:46.725Z,8.14
2019-03-30T08:57:12.762Z,8.18
2019-03-30T08:59:38.871Z,8.22
2019-03-30T09:02:04.994Z,8.41
2019-03-30T09:04:31.859Z,8.60
2019-03-30T09:06:57.943Z,8.62
2019-03-30T09:09:24.074Z,8.72
2019-03-30T09:11:50.240Z,8.82
2019-03-30T09:14:16.441Z,8.90
2019-03-30T09:16:42.615Z,8.93
2019-03-30T09:19:09.036Z,8.94
2019-03-30T09:21:35.165Z,8.98
2019-03-30T09:24:09.347Z,9.22
2019-03-30T09:26:29.361Z,9.33
2019-03-30T09:28:55.580Z,9.39
2019-03-30T09:31:21.839Z,9.59
2019-03-30T09:33:48.068Z,9.68
2019-03-30T09:36:14.195Z,9.79
2019-03-30T09:38:40.338Z,9.83
2019-03-30T09:41:06.466Z,9.90
2019-03-30T09:43:32.623Z,10.06
2019-03-30T09:45:58.771Z,10.31
2019-03-30T09:48:24.888Z,10.39
2019-03-30T09:50:51.040Z,10.46
2019-03-30T09:53:17.167Z,10.45
2019-03-30T09:55:43.346Z,10.55
2019-03-30T09:58:09.495Z,10.58
2019-03-30T10:00:35.622Z,10.69
2019-03-30T10:03:01.753Z,10.89
2019-03-30T10:05:27.807Z,11.14
2019-03-30T10:07:53.955Z,11.37
2019-03-30T10:10:20.094Z,11.42
2019-03-30T10:12:46.244Z,11.56
2019-03-30T10:15:12.862Z,11.67
2019-03-30T10:17:39.126Z,11.73
2019-03-30T10:20:08.460Z,11.73
2019-03-30T10:22:34.403Z,11.74
2019-03-30T10:25:00.646Z,11.83
2019-03-30T10:27:26.959Z,11.97
2019-03-30T10:29:54.890Z,12.17
2019-03-30T10:32:21.022Z,12.22
2019-03-30T10:34:47.283Z,12.28
2019-03-30T10:37:13.444Z,12.36
2019-03-30T10:39:39.567Z,12.54
2019-03-30T10:42:05.682Z,12.71
2019-03-30T10:44:31.879Z,12.80
2019-03-30T10:46:58.465Z,12.88
2019-03-30T10:49:24.714Z,12.92
2019-03-30T10:51:54.147Z,12.98
2019-03-30T10:54:18.776Z,13.17
2019-03-30T10:56:45.013Z,13.41
2019-03-30T10:59:11.143Z,13.52
2019-03-30T11:01:37.347Z,13.59
2019-03-30T11:04:03.479Z,13.62
2019-03-30T11:06:29.708Z,13.67
2019-03-30T11:08:55.819Z,13.69
2019-03-30T11:11:21.957Z,13.82
2019-03-30T11:13:48.122Z,13.97
2019-03-30T11:16:20.360Z,14.09
2019-03-30T11:18:42.191Z,14.22
2019-03-30T11:21:08.355Z,14.34
2019-03-30T11:23:34.481Z,14.41
2019-03-30T11:26:00.769Z,14.42
2019-03-30T11:28:26.866Z,14.47
2019-03-30T11:30:52.998Z,14.58
2019-03-30T11:33:19.136Z,14.71
2019-03-30T11:35:45.257Z,14.80
2019-03-30T11:38:11.489Z,14.84
2019-03-30T11:40:37.727Z,14.92
2019-03-30T11:43:03.924Z,15.01
2019-03-30T11:45:30.046Z,15.13
2019-03-30T11:47:56.182Z,15.23
2019-03-30T11:50:22.446Z,15.27
2019-03-30T11:52:48.465Z,15.34
2019-03-30T11:55:21.875Z,15.45
2019-03-30T11:57:42.673Z,15.48
2019-03-30T12:00:12.615Z,15.63
2019-03-30T12:02:38.650Z,15.71
2019-03-30T12:05:06.163Z,15.82
2019-03-30T12:07:33.680Z,15.89
2019-03-30T12:09:59.842Z,15.93
2019-03-30T12:12:26.007Z,15.94
2019-03-30T12:14:52.214Z,15.96
2019-03-30T12:17:18.378Z,15.94
2019-03-30T12:19:44.544Z,16.02
2019-03-30T12:22:10.719Z,16.03
2019-03-30T12:24:36.852Z,16.10
2019-03-30T12:27:03.104Z,16.16
2019-03-30T12:29:29.282Z,16.20
2019-03-30T12:31:55.401Z,16.21
2019-03-30T12:34:21.659Z,16.28
2019-03-30T12:36:47.927Z,16.38
2019-03-30T12:39:14.078Z,16.44
2019-03-30T12:41:42.143Z,16.47
2019-03-30T12:44:08.201Z,16.55
2019-03-30T12:46:34.430Z,16.63
2019-03-30T12:49:00.555Z,16.73
2019-03-30T12:51:26.702Z,16.76
2019-03-30T12:53:52.838Z,16.82
2019-03-30T12:56:25.763Z,16.93
2019-03-30T12:58:53.660Z,17.01
2019-03-30T13:01:19.832Z,17.02
2019-03-30T13:03:45.957Z,16.97
2019-03-30T13:06:12.095Z,17.01
2019-03-30T13:08:38.261Z,17.02
2019-03-30T13:11:04.389Z,17.09
2019-03-30T13:13:30.553Z,17.18
2019-03-30T13:15:56.676Z,17.18
2019-03-30T13:18:22.960Z,17.15
2019-03-30T13:20:50.999Z,17.19
2019-03-30T13:23:17.142Z,17.26
2019-03-30T13:25:43.402Z,17.40
2019-03-30T13:28:13.420Z,17.37
2019-03-30T13:30:39.513Z,17.44
2019-03-30T13:33:05.769Z,17.52
2019-03-30T13:35:31.917Z,17.63
2019-03-30T13:37:58.235Z,17.71
2019-03-30T13:40:24.376Z,17.73
2019-03-30T13:42:50.533Z,17.75
2019-03-30T13:45:23.344Z,17.73
2019-03-30T13:47:47.100Z,17.75
2019-03-30T13:50:15.269Z,17.74
2019-03-30T13:52:41.408Z,17.71
2019-03-30T13:55:07.558Z,17.71
2019-03-30T13:57:33.742Z,17.71
2019-03-30T13:59:59.854Z,17.70
2019-03-30T14:02:26.012Z,17.71
2019-03-30T14:04:52.648Z,17.70
2019-03-30T14:07:18.851Z,17.72
2019-03-30T14:09:45.006Z,17.75
2019-03-30T14:12:11.193Z,17.77
2019-03-30T14:14:37.332Z,17.77
2019-03-30T14:17:03.452Z,17.81
2019-03-30T14:19:31.375Z,17.82
2019-03-30T14:21:57.612Z,17.88
2019-03-30T14:24:23.748Z,17.89
2019-03-30T14:26:49.878Z,17.91
2019-03-30T14:29:16.707Z,17.86
2019-03-30T14:31:42.840Z,17.94
2019-03-30T14:34:08.979Z,17.97
2019-03-30T14:36:35.106Z,17.97
2019-03-30T14:39:01.273Z,18.00
2019-03-30T14:41:27.576Z,17.97
2019-03-30T14:43:54.612Z,17.98
2019-03-30T14:46:20.728Z,17.98
2019-03-30T14:48:46.841Z,17.97
2019-03-30T14:51:12.969Z,17.95
2019-03-30T14:53:39.105Z,17.94
2019-03-30T14:56:05.267Z,17.95
2019-03-30T14:58:31.516Z,17.94
2019-03-30T15:00:57.878Z,17.93
2019-03-30T15:03:24.173Z,17.92
2019-03-30T15:05:50.464Z,17.90
2019-03-30T15:08:16.612Z,17.85
2019-03-30T15:10:42.770Z,17.79
2019-03-30T15:13:08.940Z,17.76
2019-03-30T15:15:35.192Z,17.71
2019-03-30T15:18:01.330Z,17.64
2019-03-30T15:20:27.557Z,17.58
2019-03-30T15:22:53.673Z,17.55
2019-03-30T15:25:19.810Z,17.46
2019-03-30T15:27:45.995Z,17.47
2019-03-30T15:30:12.253Z,17.45
2019-03-30T15:32:38.528Z,17.42
2019-03-30T15:35:06.246Z,17.48
2019-03-30T15:37:32.369Z,17.46
2019-03-30T15:39:58.497Z,17.46
2019-03-30T15:42:26.823Z,17.47
2019-03-30T15:44:52.972Z,17.45
2019-03-30T15:47:19.260Z,17.36
2019-03-30T15:49:45.511Z,17.30
2019-03-30T15:52:14.164Z,17.29
2019-03-30T15:54:39.703Z,17.29
2019-03-30T15:57:13.869Z,17.25
2019-03-30T15:59:34.344Z,17.18
2019-03-30T16:02:00.572Z,17.15
2019-03-30T16:04:26.771Z,17.12
2019-03-30T16:06:52.908Z,17.08
2019-03-30T16:09:19.043Z,17.00
2019-03-30T16:11:45.188Z,16.88
2019-03-30T16:14:11.318Z,16.74
2019-03-30T16:16:37.592Z,16.63
2019-03-30T16:19:03.819Z,16.44
2019-03-30T16:21:29.996Z,16.28
2019-03-30T16:23:56.031Z,16.16
2019-03-30T16:26:22.181Z,16.01
2019-03-30T16:28:48.301Z,15.77
2019-03-30T16:31:14.550Z,15.61
2019-03-30T16:33:40.715Z,15.44
2019-03-30T16:36:08.043Z,15.30
2019-03-30T16:38:34.116Z,15.16
2019-03-30T16:41:00.269Z,14.85
2019-03-30T16:43:26.435Z,14.72
2019-03-30T16:45:52.627Z,14.66
2019-03-30T16:48:18.746Z,14.56
2019-03-30T16:50:44.980Z,14.46
2019-03-30T16:53:11.112Z,14.30
2019-03-30T16:55:37.280Z,14.17
2019-03-30T16:58:03.514Z,14.08
2019-03-30T17:00:32.503Z,13.97
2019-03-30T17:02:58.650Z,13.82
2019-03-30T17:05:24.784Z,13.70
2019-03-30T17:07:51.079Z,13.58
2019-03-30T17:10:18.342Z,13.37
2019-03-30T17:12:44.466Z,13.14
2019-03-30T17:15:10.592Z,12.99
2019-03-30T17:17:36.752Z,12.96
2019-03-30T17:20:06.064Z,12.85
2019-03-30T17:22:32.009Z,12.70
2019-03-30T17:24:58.303Z,12.53
2019-03-30T17:27:24.432Z,12.42
2019-03-30T17:29:50.719Z,12.32
2019-03-30T17:32:16.915Z,12.21
2019-03-30T17:34:43.180Z,12.03
2019-03-30T17:37:09.509Z,11.86
2019-03-30T17:39:35.774Z,11.74
2019-03-30T17:42:02.045Z,11.64
2019-03-30T17:44:28.273Z,11.57
2019-03-30T17:46:54.526Z,11.46
2019-03-30T17:49:20.669Z,11.30
2019-03-30T17:51:46.872Z,11.22
2019-03-30T17:54:13.028Z,11.15
2019-03-30T17:56:39.154Z,11.03
2019-03-30T17:59:05.384Z,10.90
2019-03-30T18:01:31.567Z,10.80
2019-03-30T18:03:58.873Z,10.72
2019-03-30T18:06:25.057Z,10.64
2019-03-30T18:08:51.211Z,10.54
2019-03-30T18:11:17.358Z,10.42
2019-03-30T18:13:43.488Z,10.27
2019-03-30T18:16:09.663Z,10.21
2019-03-30T18:18:35.801Z,10.16
2019-03-30T18:21:01.926Z,10.09
2019-03-30T18:23:30.126Z,9.97
2019-03-30T18:25:56.435Z,9.83
2019-03-30T18:28:27.263Z,9.74
2019-03-30T18:30:50.720Z,9.62
2019-03-30T18:33:16.953Z,9.52
2019-03-30T18:35:43.174Z,9.45
2019-03-30T18:38:12.599Z,9.36
2019-03-30T18:40:37.616Z,9.28
2019-03-30T18:43:03.833Z,9.21
2019-03-30T18:45:30.068Z,9.15
2019-03-30T18:48:52.678Z,9.08
2019-03-30T18:51:20.339Z,9.00
2019-03-30T18:53:47.670Z,8.84
2019-03-30T18:56:14.196Z,8.78
2019-03-30T18:58:41.869Z,8.69
2019-03-30T19:01:08.401Z,8.61
2019-03-30T19:03:34.630Z,8.50
2019-03-30T19:06:01.269Z,8.42
2019-03-30T19:08:27.557Z,8.35
2019-03-30T19:10:53.786Z,8.26
2019-03-30T19:13:19.939Z,8.19
2019-03-30T19:15:46.075Z,8.18
2019-03-30T19:18:14.843Z,8.11
2019-03-30T19:20:40.992Z,8.00
2019-03-30T19:23:07.126Z,7.91
2019-03-30T19:25:33.251Z,7.84
2019-03-30T19:27:59.381Z,7.72
2019-03-30T19:30:26.058Z,7.67
2019-03-30T19:32:52.261Z,7.70
2019-03-30T19:35:18.498Z,7.66
2019-03-30T19:37:44.520Z,7.51
2019-03-30T19:40:10.801Z,7.44
2019-03-30T19:42:36.931Z,7.38
2019-03-30T19:45:06.593Z,7.29
2019-03-30T19:47:32.731Z,7.20
2019-03-30T19:49:58.876Z,7.07
2019-03-30T19:52:38.949Z,6.96
2019-03-30T19:54:53.246Z,6.87
2019-03-30T19:57:19.374Z,6.80
2019-03-30T19:59:45.496Z,6.73
2019-03-30T20:02:11.742Z,6.70
2019-03-30T20:04:37.974Z,6.70
2019-03-30T20:07:04.124Z,6.65
2019-03-30T20:09:32.882Z,6.61
2019-03-30T20:11:59.115Z,6.52
2019-03-30T20:14:25.363Z,6.43
2019-03-30T20:16:51.518Z,6.42
2019-03-30T20:19:17.674Z,6.36
2019-03-30T20:21:43.935Z,6.29
2019-03-30T20:24:10.222Z,6.24
2019-03-30T20:26:36.338Z,6.17
2019-03-30T20:29:03.096Z,6.09
2019-03-30T20:31:29.263Z,6.07
2019-03-30T20:33:55.409Z,6.00
2019-03-30T20:36:21.582Z,5.90
2019-03-30T20:38:47.740Z,5.85
2019-03-30T20:41:13.877Z,5.85
2019-03-30T20:43:40.048Z,5.84
2019-03-30T20:46:10.496Z,5.80
2019-03-30T20:48:36.637Z,5.71
2019-03-30T20:51:02.823Z,5.64
2019-03-30T20:53:28.969Z,5.63
2019-03-30T20:55:55.150Z,5.62
2019-03-30T20:58:21.283Z,5.57
2019-03-30T21:00:47.414Z,5.53
2019-03-30T21:03:13.547Z,5.46
2019-03-30T21:05:39.812Z,5.43
2019-03-30T21:08:05.990Z,5.36
2019-03-30T21:10:32.138Z,5.29
2019-03-30T21:12:58.293Z,5.26
2019-03-30T21:15:24.466Z,5.26
2019-03-30T21:17:50.603Z,5.21
2019-03-30T21:20:16.858Z,5.17
2019-03-30T21:22:43.004Z,5.12
2019-03-30T21:25:09.194Z,5.07
2019-03-30T21:27:35.960Z,5.02
2019-03-30T21:30:05.847Z,4.98
2019-03-30T21:32:31.962Z,4.88
2019-03-30T21:34:58.146Z,4.84
2019-03-30T21:37:24.370Z,4.79
2019-03-30T21:39:50.411Z,4.70
2019-03-30T21:42:16.650Z,4.66
2019-03-30T21:44:42.896Z,4.64
2019-03-30T21:47:10.973Z,4.60
2019-03-30T21:49:37.210Z,4.57
2019-03-30T21:52:03.571Z,4.53
2019-03-30T21:54:29.707Z,4.48
2019-03-30T21:56:55.971Z,4.44
2019-03-30T21:59:22.170Z,4.41
2019-03-30T22:01:48.392Z,4.36
2019-03-30T22:04:14.526Z,4.32
2019-03-30T22:06:40.783Z,4.30
2019-03-30T22:09:07.125Z,4.27
2019-03-30T22:11:33.724Z,4.24
2019-03-30T22:13:59.871Z,4.25
2019-03-30T22:16:25.999Z,4.24
2019-03-30T22:18:53.898Z,4.23
2019-03-30T22:21:20.137Z,4.20
2019-03-30T22:23:46.393Z,4.16
2019-03-30T22:26:12.635Z,4.12
2019-03-30T22:28:38.754Z,4.08
2019-03-30T22:31:04.908Z,4.02
2019-03-30T22:33:31.046Z,3.95
2019-03-30T22:35:57.202Z,3.93
2019-03-30T22:38:23.320Z,3.89
2019-03-30T22:40:52.323Z,3.87
2019-03-30T22:43:18.459Z,3.84
2019-03-30T22:45:44.614Z,3.77
2019-03-30T22:48:10.742Z,3.67
2019-03-30T22:50:36.907Z,3.63
2019-03-30T22:53:03.043Z,3.61
2019-03-30T22:55:29.213Z,3.58
2019-03-30T22:57:55.240Z,3.54
2019-03-30T23:03:17.011Z,3.49
2019-03-30T23:05:43.159Z,3.41
2019-03-30T23:08:09.328Z,3.42
2019-03-30T23:10:35.364Z,3.41
2019-03-30T23:13:01.529Z,3.43
2019-03-30T23:15:27.691Z,3.43
2019-03-30T23:17:53.859Z,3.44
2019-03-30T23:20:19.996Z,3.43
2019-03-30T23:22:46.148Z,3.37
2019-03-30T23:25:12.318Z,3.34
2019-03-30T23:27:38.405Z,3.31
2019-03-30T23:30:05.759Z,3.27
2019-03-30T23:32:31.925Z,3.26
2019-03-30T23:34:58.056Z,3.21
2019-03-30T23:37:24.113Z,3.17
2019-03-30T23:39:50.247Z,3.16
2019-03-30T23:42:16.363Z,3.14
2019-03-30T23:44:42.484Z,3.09
2019-03-30T23:47:08.507Z,3.06
2019-03-30T23:49:36.841Z,3.00
2019-03-30T23:52:02.968Z,2.93
2019-03-30T23:54:29.096Z,2.88
2019-03-30T23:56:55.729Z,2.85
2019-03-30T23:59:21.861Z,2.78
